createdAt,value
2023-05-02T00:04:32.810Z,63.58
2023-05-02T00:08:57.332Z,63.52
2023-05-02T00:13:06.849Z,63.25
2023-05-02T00:17:52.308Z,63.22
2023-05-02T00:22:16.563Z,63.17
2023-05-02T00:26:49.712Z,63.06
2023-05-02T00:31:27.353Z,62.76
2023-05-02T00:35:58.513Z,62.76
2023-05-02T00:40:42.498Z,62.72
2023-05-02T00:44:46.550Z,63.04
2023-05-02T00:50:12.747Z,62.76
2023-05-02T00:54:32.411Z,62.32
2023-05-02T01:05:47.765Z,62.24
2023-05-02T01:09:56.060Z,62.41
2023-05-02T01:14:18.921Z,62.45
2023-05-02T01:19:01.984Z,62.38
2023-05-02T01:23:44.598Z,62.68
2023-05-02T01:28:20.473Z,63.16
2023-05-02T01:32:26.899Z,63.04
2023-05-02T01:36:51.434Z,62.98
2023-05-02T01:41:13.594Z,62.81
2023-05-02T01:45:16.853Z,62.75
2023-05-02T01:53:08.210Z,60.51
2023-05-02T01:57:51.984Z,59.93
2023-05-02T02:01:57.153Z,59.29
2023-05-02T02:06:42.592Z,58.97
2023-05-02T02:11:22.576Z,57.65
2023-05-02T02:15:29.615Z,57.20
2023-05-02T02:19:41.339Z,56.58
2023-05-02T02:23:54.531Z,55.75
2023-05-02T02:27:59.357Z,55.51
2023-05-02T02:32:43.751Z,55.14
2023-05-02T02:37:17.036Z,55.07
2023-05-02T02:42:01.759Z,54.90
2023-05-02T02:46:30.713Z,55.29
2023-05-02T02:51:28.089Z,55.18
2023-05-02T02:55:58.232Z,54.93
2023-05-02T03:00:52.029Z,54.74
2023-05-02T03:05:23.730Z,53.45
2023-05-02T03:09:46.382Z,53.69
2023-05-02T03:14:30.295Z,53.71
2023-05-02T03:19:02.134Z,53.86
2023-05-02T03:23:46.186Z,53.59
2023-05-02T03:28:14.287Z,53.46
2023-05-02T03:32:40.167Z,53.54
2023-05-02T03:36:47.951Z,53.58
2023-05-02T03:41:12.163Z,53.38
2023-05-02T03:45:16.744Z,52.77
2023-05-02T03:49:37.098Z,52.17
2023-05-02T03:54:04.722Z,52.26
2023-05-02T03:58:37.763Z,51.59
2023-05-02T04:03:13.517Z,51.23
2023-05-02T04:07:20.396Z,50.83
2023-05-02T04:11:33.121Z,50.46
2023-05-02T04:15:40.788Z,49.80
2023-05-02T04:19:40.949Z,49.65
2023-05-02T04:23:53.297Z,48.78
2023-05-02T04:28:25.418Z,48.13
2023-05-02T04:32:34.862Z,47.47
2023-05-02T04:36:22.978Z,47.72
2023-05-02T04:40:04.631Z,46.75
2023-05-02T04:43:45.377Z,46.76
2023-05-02T04:47:31.383Z,47.00
2023-05-02T04:51:31.067Z,47.12
2023-05-02T04:55:15.693Z,46.03
2023-05-02T04:58:41.675Z,45.84
2023-05-02T05:02:28.864Z,45.61
2023-05-02T05:05:56.279Z,45.50
2023-05-02T05:09:23.024Z,45.39
2023-05-02T05:12:51.767Z,46.37
2023-05-02T05:16:38.068Z,46.20
2023-05-02T05:20:27.412Z,45.65
2023-05-02T05:24:03.507Z,46.32
2023-05-02T05:27:50.581Z,45.91
2023-05-02T05:31:35.936Z,45.89
2023-05-02T05:35:19.016Z,45.68
2023-05-02T05:38:46.479Z,44.56
2023-05-02T05:42:32.430Z,45.44
2023-05-02T05:46:01.623Z,45.97
2023-05-02T05:49:29.559Z,45.66
2023-05-02T05:53:01.486Z,45.36
2023-05-02T05:56:45.551Z,44.80
2023-05-02T06:00:13.030Z,44.90
2023-05-02T06:04:08.944Z,45.06
2023-05-02T06:07:33.040Z,44.54
2023-05-02T06:11:23.188Z,45.17
2023-05-02T06:14:49.814Z,44.28
2023-05-02T06:18:18.682Z,44.57
2023-05-02T06:22:03.541Z,43.74
2023-05-02T06:25:35.426Z,42.55
2023-05-02T06:29:06.076Z,42.74
2023-05-02T06:32:56.061Z,43.32
2023-05-02T06:36:23.858Z,41.84
2023-05-02T06:39:56.823Z,41.65
2023-05-02T06:43:22.569Z,41.87
2023-05-02T06:46:47.631Z,40.96
2023-05-02T06:50:12.858Z,41.14
2023-05-02T06:53:39.973Z,41.80
2023-05-02T06:57:12.164Z,40.33
2023-05-02T07:00:36.000Z,41.03
2023-05-02T07:04:02.211Z,40.71
2023-05-02T07:07:26.245Z,40.97
2023-05-02T07:10:52.478Z,40.33
2023-05-02T07:14:21.961Z,41.24
2023-05-02T07:17:55.485Z,40.95
2023-05-02T07:21:19.741Z,40.47
2023-05-02T07:24:44.169Z,40.67
2023-05-02T07:28:08.217Z,40.39
2023-05-02T07:31:40.283Z,40.29
2023-05-02T07:35:11.563Z,40.38
2023-05-02T07:38:42.209Z,40.69
2023-05-02T07:42:20.482Z,41.02
2023-05-02T07:45:59.588Z,41.57
2023-05-02T07:49:34.016Z,41.31
2023-05-02T07:53:12.489Z,40.12
2023-05-02T07:56:39.174Z,40.82
2023-05-02T08:00:18.877Z,40.94
2023-05-02T08:03:50.763Z,41.34
2023-05-02T08:07:17.736Z,41.26
2023-05-02T08:10:52.056Z,40.75
2023-05-02T08:14:17.496Z,41.09
2023-05-02T08:17:43.714Z,41.06
2023-05-02T08:21:19.744Z,40.85
2023-05-02T08:24:44.798Z,41.38
2023-05-02T08:28:42.911Z,42.04
2023-05-02T08:32:25.745Z,41.78
2023-05-02T08:35:53.293Z,41.92
2023-05-02T08:39:18.347Z,41.04
2023-05-02T08:42:57.398Z,38.14
2023-05-02T08:46:28.611Z,40.83
2023-05-02T08:50:02.890Z,40.89
2023-05-02T08:53:29.773Z,38.80
2023-05-02T08:56:54.299Z,36.91
2023-05-02T09:00:31.958Z,38.14
2023-05-02T09:04:02.588Z,40.01
2023-05-02T09:07:27.802Z,40.61
2023-05-02T09:11:06.890Z,39.41
2023-05-02T09:14:47.894Z,39.96
2023-05-02T09:18:25.504Z,38.91
2023-05-02T09:22:10.259Z,39.90
2023-05-02T09:25:39.241Z,39.90
2023-05-02T09:29:07.367Z,39.69
2023-05-02T09:32:45.616Z,40.33
2023-05-02T09:36:16.431Z,39.45
2023-05-02T09:39:40.823Z,38.37
2023-05-02T09:43:17.612Z,39.70
2023-05-02T09:47:02.799Z,39.75
2023-05-02T09:50:38.046Z,40.75
2023-05-02T09:55:01.455Z,40.60
2023-05-02T09:58:33.463Z,41.81
2023-05-02T10:02:05.438Z,41.77
2023-05-02T10:05:48.334Z,40.93
2023-05-02T10:09:22.880Z,39.77
2023-05-02T10:12:34.869Z,41.87
2023-05-02T10:16:03.436Z,41.01
2023-05-02T10:19:40.154Z,40.85
2023-05-02T10:23:12.476Z,40.45
2023-05-02T10:26:35.965Z,39.29
2023-05-02T10:30:24.469Z,39.32
2023-05-02T10:34:12.212Z,39.18
2023-05-02T10:37:38.842Z,38.56
2023-05-02T10:41:24.864Z,39.03
2023-05-02T10:45:03.441Z,38.84
2023-05-02T10:48:38.894Z,39.88
2023-05-02T10:52:53.908Z,40.10
2023-05-02T10:56:34.091Z,40.20
2023-05-02T11:00:40.532Z,40.70
2023-05-02T11:04:20.256Z,41.26
2023-05-02T11:07:48.132Z,41.32
2023-05-02T11:12:10.045Z,41.95
2023-05-02T11:16:09.171Z,42.38
2023-05-02T11:19:46.753Z,41.57
2023-05-02T11:23:16.460Z,41.27
2023-05-02T11:26:46.822Z,41.57
2023-05-02T11:30:10.388Z,40.92
2023-05-02T11:34:02.887Z,41.01
2023-05-02T11:37:33.782Z,41.07
2023-05-02T11:41:04.108Z,39.77
2023-05-02T11:44:54.837Z,39.56
2023-05-02T11:48:15.326Z,40.24
2023-05-02T11:51:40.875Z,39.80
2023-05-02T11:55:11.802Z,41.13
2023-05-02T11:58:37.529Z,41.76
2023-05-02T12:02:18.936Z,42.25
2023-05-02T12:05:56.036Z,42.19
2023-05-02T12:09:33.327Z,41.65
2023-05-02T12:13:09.379Z,41.86
2023-05-02T12:16:49.519Z,42.42
2023-05-02T12:20:19.472Z,42.68
2023-05-02T12:23:44.320Z,43.61
2023-05-02T12:27:20.911Z,44.34
2023-05-02T12:30:54.218Z,43.81
2023-05-02T12:34:36.012Z,43.78
2023-05-02T12:38:31.612Z,42.66
2023-05-02T12:42:03.381Z,43.51
2023-05-02T12:45:42.873Z,43.16
2023-05-02T12:49:29.356Z,42.91
2023-05-02T12:53:15.148Z,42.84
2023-05-02T12:57:04.694Z,43.23
2023-05-02T13:00:55.936Z,42.60
2023-05-02T13:04:21.714Z,43.28
2023-05-02T13:07:51.238Z,43.82
2023-05-02T13:11:19.972Z,45.12
2023-05-02T13:14:43.748Z,45.97
2023-05-02T13:18:48.018Z,46.83
2023-05-02T13:22:13.233Z,47.01
2023-05-02T13:25:40.991Z,46.73
2023-05-02T13:29:15.941Z,47.29
2023-05-02T13:33:04.811Z,48.29
2023-05-02T13:36:45.297Z,48.74
2023-05-02T13:40:14.074Z,49.46
2023-05-02T13:43:57.529Z,50.03
2023-05-02T13:47:24.862Z,51.49
2023-05-02T13:50:52.096Z,51.66
2023-05-02T13:54:20.835Z,53.00
2023-05-02T13:57:47.906Z,54.24
2023-05-02T14:01:28.499Z,53.33
2023-05-02T14:04:53.946Z,54.41
2023-05-02T14:08:28.598Z,54.49
2023-05-02T14:12:16.624Z,56.25
2023-05-02T14:15:59.272Z,57.09
2023-05-02T14:19:32.756Z,58.53
2023-05-02T14:22:57.774Z,59.43
2023-05-02T14:26:31.176Z,60.45
2023-05-02T14:30:16.232Z,62.13
2023-05-02T14:34:09.734Z,65.11
2023-05-02T14:38:13.535Z,68.61
2023-05-02T14:41:57.637Z,71.80
2023-05-02T14:46:03.241Z,74.60
2023-05-02T14:50:07.432Z,77.77
2023-05-02T14:54:34.958Z,80.22
2023-05-02T14:58:56.316Z,80.57
2023-05-02T15:03:06.518Z,79.69
2023-05-02T15:07:25.216Z,78.95
2023-05-02T15:11:30.183Z,78.16
2023-05-02T15:15:36.701Z,77.21
2023-05-02T15:19:31.262Z,76.34
2023-05-02T15:23:06.011Z,76.08
2023-05-02T15:27:06.946Z,75.92
2023-05-02T15:30:52.595Z,76.11
2023-05-02T15:34:55.727Z,76.18
2023-05-02T15:38:36.949Z,76.24
2023-05-02T15:42:44.787Z,75.98
2023-05-02T15:47:08.435Z,76.34
2023-05-02T15:51:05.398Z,76.66
2023-05-02T15:55:09.818Z,77.33
2023-05-02T15:59:16.565Z,77.99
2023-05-02T16:03:22.946Z,77.30
2023-05-02T16:07:47.383Z,77.54
2023-05-02T16:11:52.077Z,77.18
2023-05-02T16:15:28.811Z,77.72
2023-05-02T16:19:32.147Z,78.91
2023-05-02T16:23:37.364Z,78.73
2023-05-02T16:27:46.918Z,77.70
2023-05-02T16:32:20.008Z,77.30
2023-05-02T16:36:30.938Z,77.36
2023-05-02T16:40:38.914Z,76.57
2023-05-02T16:44:51.969Z,78.79
2023-05-02T16:48:56.402Z,78.66
2023-05-02T16:53:20.338Z,78.53
2023-05-02T16:57:27.857Z,78.84
2023-05-02T17:02:07.836Z,78.70
2023-05-02T17:06:19.561Z,78.94
2023-05-02T17:10:28.188Z,79.18
2023-05-02T17:14:50.770Z,79.46
2023-05-02T17:19:22.404Z,79.32
2023-05-02T17:23:48.001Z,79.45
2023-05-02T17:28:23.897Z,79.72
2023-05-02T17:32:27.836Z,80.47
2023-05-02T17:36:55.182Z,80.57
2023-05-02T17:41:37.896Z,78.59
2023-05-02T17:45:42.909Z,78.56
2023-05-02T17:50:07.609Z,78.21
2023-05-02T17:54:32.579Z,79.32
2023-05-02T17:58:44.125Z,80.40
2023-05-02T18:02:48.725Z,81.62
2023-05-02T18:07:32.684Z,83.40
2023-05-02T18:12:05.577Z,81.11
2023-05-02T18:15:56.016Z,81.75
2023-05-02T18:20:04.596Z,82.74
2023-05-02T18:24:49.118Z,83.87
2023-05-02T18:29:20.742Z,83.54
2023-05-02T18:33:36.772Z,83.13
2023-05-02T18:38:20.444Z,82.91
2023-05-02T18:42:45.640Z,83.97
2023-05-02T18:47:26.716Z,84.23
2023-05-02T18:51:46.348Z,84.23
2023-05-02T18:56:10.722Z,83.63
2023-05-02T19:00:55.199Z,83.24
2023-05-02T19:05:18.513Z,83.07
2023-05-02T19:10:02.604Z,83.06
2023-05-02T19:14:46.134Z,83.44
2023-05-02T19:19:20.178Z,83.24
2023-05-02T19:23:44.853Z,83.24
2023-05-02T19:28:21.550Z,83.92
2023-05-02T19:32:27.428Z,84.42
2023-05-02T19:37:11.665Z,84.89
2023-05-02T19:41:55.405Z,84.65
2023-05-02T19:46:09.053Z,84.86
2023-05-02T19:50:16.886Z,85.08
2023-05-02T20:06:35.776Z,84.93
2023-05-02T20:11:07.237Z,85.12
2023-05-02T20:15:31.423Z,84.87
2023-05-02T20:19:36.635Z,84.83
2023-05-02T20:23:45.478Z,84.88
2023-05-02T20:28:29.326Z,85.12
2023-05-02T20:33:15.616Z,85.07
2023-05-02T20:37:15.168Z,84.95
2023-05-02T20:41:15.392Z,84.94
2023-05-02T20:45:19.460Z,84.97
2023-05-02T20:49:43.508Z,85.09
2023-05-02T20:53:50.802Z,85.12
2023-05-02T20:57:59.382Z,85.22
2023-05-02T21:02:44.087Z,85.40
2023-05-02T21:07:11.934Z,84.08
2023-05-02T21:11:56.333Z,83.99
2023-05-02T21:16:35.904Z,84.30
2023-05-02T21:21:00.112Z,84.41
2023-05-02T21:25:05.518Z,84.36
2023-05-02T21:29:35.418Z,85.21
2023-05-02T21:34:19.959Z,87.30
2023-05-02T21:39:04.218Z,87.70
2023-05-02T21:43:01.889Z,89.66
2023-05-02T21:46:56.611Z,88.18
2023-05-02T21:51:22.535Z,87.56
2023-05-02T21:55:51.649Z,88.30
2023-05-02T22:00:00.599Z,87.45
2023-05-02T22:04:45.057Z,88.18
2023-05-02T22:09:17.232Z,86.58
2023-05-02T22:13:56.568Z,86.35
2023-05-02T22:18:25.902Z,86.67
2023-05-02T22:23:10.378Z,86.24
2023-05-02T22:27:54.745Z,86.17
2023-05-02T22:32:00.535Z,86.00
2023-05-02T22:36:24.447Z,86.06
2023-05-02T22:41:09.274Z,86.10
2023-05-02T22:45:32.145Z,85.81
2023-05-02T22:49:33.729Z,86.08
2023-05-02T22:53:44.691Z,86.51
2023-05-02T22:58:06.071Z,86.47
2023-05-02T23:02:09.836Z,86.40
2023-05-02T23:06:35.043Z,87.14
2023-05-02T23:11:19.112Z,87.62
2023-05-02T23:16:03.210Z,86.55
2023-05-02T23:20:24.961Z,86.54
2023-05-02T23:24:49.454Z,86.85
2023-05-02T23:29:30.717Z,86.93
2023-05-02T23:33:55.032Z,87.35
2023-05-02T23:38:22.600Z,88.20
2023-05-02T23:42:49.609Z,88.37
2023-05-02T23:47:33.250Z,88.44
2023-05-02T23:51:51.728Z,88.32
2023-05-02T23:56:36.282Z,88.63
